Time;durP1;ratioP1;P1;durP2;ratioP2;P2;SDS_P1;SDS_P2;PMS_P1;PMS_P2;Temp;Humidity;BMP_temperature;BMP_pressure;BME280_temperature;BME280_humidity;BME280_pressure;Samples;Min_cycle;Max_cycle;Signal;HPM_P1;HPM_P2
2023/09/10 00:02:09;;;;;;;20.20;17.00;;;;;;;19.10;61.28;100765.64;109610;1275;21997;-84
2023/09/10 00:05:02;;;;;;;19.90;17.10;;;;;;;19.08;61.39;100763.70;109928;1272;24413;-85
2023/09/10 00:07:40;;;;;;;21.70;16.80;;;;;;;19.04;61.55;100761.52;109955;1272;22005;-85
2023/09/10 00:10:19;;;;;;;21.40;16.50;;;;;;;19.00;61.71;100759.27;109791;1272;22423;-83
2023/09/10 00:12:53;;;;;;;19.50;17.40;;;;;;;18.97;61.92;100758.62;110133;1268;23599;-86
2023/09/10 00:15:27;;;;;;;18.10;16.40;;;;;;;18.92;61.92;100760.67;110186;1268;23033;-84
2023/09/10 00:18:02;;;;;;;17.70;15.90;;;;;;;18.89;62.05;100761.44;110471;1265;21995;-86
2023/09/10 00:20:36;;;;;;;19.60;16.80;;;;;;;18.86;62.09;100768.32;109878;1271;23727;-86
2023/09/10 00:23:16;;;;;;;22.30;18.40;;;;;;;18.78;62.29;100767.75;110206;1267;23628;-85
2023/09/10 00:25:58;;;;;;;19.10;17.10;;;;;;;18.72;62.54;100764.09;110377;1267;21985;-87
2023/09/10 00:28:32;;;;;;;19.10;17.10;;;;;;;18.68;62.62;100763.50;110300;1267;23078;-84
2023/09/10 00:31:04;;;;;;;20.80;17.20;;;;;;;18.63;62.71;100763.06;109750;1272;21985;-85
2023/09/10 00:33:41;;;;;;;18.80;16.30;;;;;;;18.58;62.92;100761.14;109860;1271;22000;-84
2023/09/10 00:36:23;;;;;;;18.80;16.90;;;;;;;18.54;63.18;100762.96;109588;1273;21986;-85
2023/09/10 00:39:06;;;;;;;24.50;17.90;;;;;;;18.50;63.29;100760.08;109732;1273;21991;-85
2023/09/10 00:41:46;;;;;;;18.30;16.60;;;;;;;18.46;63.40;100758.23;109798;1273;22269;-84
2023/09/10 00:44:23;;;;;;;19.70;17.80;;;;;;;18.42;63.47;100760.04;109652;1268;21977;-84
2023/09/10 00:46:57;;;;;;;20.60;17.50;;;;;;;18.39;63.54;100757.42;110031;1270;21971;-85
2023/09/10 00:49:36;;;;;;;20.40;17.20;;;;;;;18.38;63.71;100754.49;110271;1263;22031;-85
2023/09/10 00:52:22;;;;;;;19.10;17.20;;;;;;;18.35;63.80;100752.39;110201;1269;22153;-85
2023/09/10 00:55:00;;;;;;;21.70;18.10;;;;;;;18.32;63.84;100753.58;109837;1269;21952;-85
2023/09/10 00:57:41;;;;;;;19.00;17.10;;;;;;;18.31;63.99;100754.93;109504;1274;23039;-84
2023/09/10 01:00:29;;;;;;;21.20;17.10;;;;;;;18.28;64.18;100755.79;109417;1277;21798;-83
2023/09/10 01:03:10;;;;;;;20.10;16.60;;;;;;;18.29;64.19;100754.14;109323;1277;21992;-83
2023/09/10 01:05:49;;;;;;;18.00;16.20;;;;;;;18.28;64.15;100750.88;109331;1278;22021;-84
2023/09/10 01:08:28;;;;;;;18.20;16.40;;;;;;;18.26;64.01;100751.02;109025;1283;22032;-85
2023/09/10 01:11:45;;;;;;;18.50;16.60;;;;;;;18.22;64.02;100747.73;108864;1284;22780;-84
2023/09/10 01:14:36;;;;;;;18.60;16.60;;;;;;;18.14;64.21;100744.71;108922;1284;22716;-86
2023/09/10 01:17:57;;;;;;;18.40;16.60;;;;;;;18.10;64.31;100744.82;109063;1281;22333;-84
2023/09/10 01:21:24;;;;;;;19.60;17.60;;;;;;;18.03;64.49;100739.27;109775;1270;22026;-83
2023/09/10 01:24:46;;;;;;;20.10;18.20;;;;;;;17.96;64.74;100738.45;109531;1276;24326;-86
2023/09/10 01:27:21;;;;;;;20.60;18.30;;;;;;;17.89;64.98;100735.91;109308;1276;24087;-85
2023/09/10 01:29:58;;;;;;;19.50;17.70;;;;;;;17.87;65.06;100736.17;109703;1272;21996;-84
2023/09/10 01:32:59;;;;;;;20.80;18.90;;;;;;;17.84;65.06;100737.23;109650;1272;22027;-85
2023/09/10 01:36:00;;;;;;;20.50;18.40;;;;;;;17.80;65.20;100736.77;109684;1272;22008;-87
2023/09/10 01:38:43;;;;;;;24.50;19.00;;;;;;;17.75;65.44;100733.40;109824;1272;21980;-85
2023/09/10 01:41:24;;;;;;;23.90;19.90;;;;;;;17.71;65.63;100735.22;109798;1272;22061;-86
2023/09/10 01:44:17;;;;;;;22.40;19.20;;;;;;;17.67;65.82;100737.41;109833;1272;21998;-85
2023/09/10 01:47:07;;;;;;;22.40;18.20;;;;;;;17.63;66.03;100739.77;109859;1272;22134;-85
2023/09/10 01:50:04;;;;;;;22.20;19.20;;;;;;;17.62;66.24;100740.02;109532;1276;22355;-85
2023/09/10 01:53:22;;;;;;;;;;;;;;;;;;;;;
2023/09/10 01:56:13;;;;;;;21.70;19.20;;;;;;;17.57;66.31;100742.40;110131;1270;22463;-84
2023/09/10 01:59:20;;;;;;;20.90;18.80;;;;;;;17.52;66.37;100743.05;109966;1272;21994;-84
2023/09/10 02:02:03;;;;;;;21.10;19.10;;;;;;;17.50;66.30;100747.38;109970;1265;23016;-84
2023/09/10 02:04:42;;;;;;;20.80;18.20;;;;;;;17.48;66.15;100747.89;110960;1265;22118;-86
2023/09/10 02:07:35;;;;;;;20.80;18.60;;;;;;;17.43;66.15;100744.32;110836;1262;21974;-86
2023/09/10 02:10:27;;;;;;;20.90;18.70;;;;;;;17.36;66.15;100743.13;110911;1265;22450;-87
2023/09/10 02:13:40;;;;;;;21.20;19.00;;;;;;;17.27;66.12;100744.90;110784;1265;22737;-87
2023/09/10 02:17:07;;;;;;;;;;;;;;;;;;;;;
2023/09/10 02:19:38;;;;;;;20.00;18.00;;;;;;;17.13;66.76;100741.33;110103;1268;22181;-84
2023/09/10 02:22:32;;;;;;;23.70;19.50;;;;;;;17.14;66.84;100743.36;110294;1268;21974;-83
2023/09/10 02:25:30;;;;;;;;;;;;;;;;;;;;;
2023/09/10 02:28:25;;;;;;;22.00;19.50;;;;;;;17.06;67.26;100741.23;110684;1264;22004;-83
2023/09/10 02:30:59;;;;;;;21.80;19.40;;;;;;;17.06;67.06;100737.71;110638;1263;22972;-83
2023/09/10 02:33:43;;;;;;;21.20;18.60;;;;;;;17.04;67.26;100742.41;110500;1263;22008;-84
2023/09/10 02:36:33;;;;;;;21.40;19.20;;;;;;;17.02;67.41;100743.73;110804;1263;21972;-83
2023/09/10 02:39:14;;;;;;;22.20;19.90;;;;;;;16.99;67.49;100744.75;110412;1263;21957;-84
2023/09/10 02:41:57;;;;;;;22.20;19.80;;;;;;;16.98;67.53;100742.56;111445;1263;22000;-85
2023/09/10 02:44:49;;;;;;;23.80;19.60;;;;;;;16.97;67.54;100742.64;110215;1270;22000;-85
2023/09/10 02:47:28;;;;;;;21.30;19.20;;;;;;;16.95;67.58;100746.23;110030;1270;21996;-84
2023/09/10 02:50:07;;;;;;;23.00;20.40;;;;;;;16.94;67.63;100747.70;110024;1265;21952;-85
2023/09/10 02:52:42;;;;;;;23.00;20.70;;;;;;;16.91;67.71;100747.16;110789;1260;21949;-84
2023/09/10 02:55:16;;;;;;;;;;;;;;;16.92;67.72;100744.66;110337;1264;21972;-85
2023/09/10 02:57:53;;;;;;;23.30;20.90;;;;;;;16.79;68.07;100744.70;110757;1263;22002;-84
2023/09/10 03:00:37;;;;;;;23.80;21.40;;;;;;;16.77;68.03;100741.09;110598;1263;23636;-85
2023/09/10 03:03:21;;;;;;;22.50;19.90;;;;;;;16.78;68.02;100738.08;110814;1257;22356;-79
2023/09/10 03:06:10;;;;;;;22.00;19.80;;;;;;;16.74;68.24;100740.55;111080;1257;22177;-79
2023/09/10 03:09:01;;;;;;;23.20;20.80;;;;;;;16.72;68.41;100737.69;111365;1257;23606;-86
2023/09/10 03:11:39;;;;;;;23.90;21.10;;;;;;;16.71;68.43;100734.95;111290;1257;21962;-85
2023/09/10 03:14:35;;;;;;;24.60;22.10;;;;;;;16.69;68.40;100734.34;111355;1257;22958;-84
2023/09/10 03:17:21;;;;;;;22.10;19.90;;;;;;;16.68;68.23;100731.44;111339;1257;21982;-85
2023/09/10 03:20:10;;;;;;;23.60;20.80;;;;;;;16.65;68.29;100728.77;111265;1257;21993;-84
2023/09/10 03:23:10;;;;;;;;;;;;;;;;;;;;;
2023/09/10 03:25:50;;;;;;;23.70;21.30;;;;;;;16.57;68.39;100722.71;111273;1251;21965;-86
2023/09/10 03:28:22;;;;;;;22.60;20.40;;;;;;;16.56;68.42;100723.48;110646;1263;24359;-85
2023/09/10 03:31:06;;;;;;;23.90;21.50;;;;;;;16.54;68.36;100717.99;110613;1263;22438;-84
2023/09/10 03:33:49;;;;;;;23.70;20.50;;;;;;;16.49;68.18;100721.25;110996;1263;21964;-85
2023/09/10 03:36:23;;;;;;;24.20;19.70;;;;;;;16.45;68.21;100721.48;110817;1263;21994;-86
2023/09/10 03:39:04;;;;;;;21.80;19.70;;;;;;;16.42;68.29;100721.14;110836;1263;23079;-85
2023/09/10 03:41:43;;;;;;;23.50;21.00;;;;;;;16.38;68.26;100715.94;111011;1263;22010;-86
2023/09/10 03:44:45;;;;;;;22.90;20.60;;;;;;;16.34;68.52;100710.69;111014;1263;23143;-85
2023/09/10 03:47:39;;;;;;;;;;;;;;;;;;;;;
2023/09/10 03:50:17;;;;;;;25.80;21.00;;;;;;;16.27;68.85;100702.13;111360;1255;21950;-82
2023/09/10 03:52:52;;;;;;;23.80;21.30;;;;;;;16.28;68.88;100704.91;111375;1257;23756;-84
2023/09/10 03:55:33;;;;;;;24.80;20.90;;;;;;;16.26;68.99;100702.53;111479;1257;22659;-84
2023/09/10 03:58:07;;;;;;;22.80;20.40;;;;;;;16.26;68.96;100701.52;111165;1258;21972;-84
2023/09/10 04:00:53;;;;;;;25.50;22.20;;;;;;;16.23;68.94;100695.35;111263;1257;21967;-84
2023/09/10 04:03:28;;;;;;;24.90;22.00;;;;;;;16.21;69.02;100694.37;111300;1257;23050;-82
2023/09/10 04:06:08;;;;;;;22.90;20.50;;;;;;;16.19;69.04;100693.45;111424;1257;22429;-83
2023/09/10 04:09:16;;;;;;;22.90;20.60;;;;;;;16.17;69.20;100695.46;111244;1257;22739;-83
2023/09/10 04:11:59;;;;;;;23.90;21.50;;;;;;;16.13;69.23;100690.98;111385;1257;21977;-81
2023/09/10 04:14:33;;;;;;;24.10;21.50;;;;;;;16.11;69.12;100689.50;111225;1257;23760;-83
2023/09/10 04:17:05;;;;;;;26.60;24.20;;;;;;;16.09;69.20;100687.51;111274;1253;21982;-83
2023/09/10 04:19:48;;;;;;;27.40;24.60;;;;;;;16.08;69.19;100686.70;111299;1257;22046;-83
2023/09/10 04:22:27;;;;;;;27.30;24.70;;;;;;;16.07;69.29;100690.95;111340;1257;21976;-83
2023/09/10 04:25:07;;;;;;;27.40;24.60;;;;;;;16.05;69.43;100690.19;111394;1257;21972;-82
2023/09/10 04:27:52;;;;;;;28.00;23.60;;;;;;;15.99;69.59;100684.88;111446;1257;22931;-82
2023/09/10 04:30:30;;;;;;;28.60;25.70;;;;;;;16.04;69.73;100692.17;110670;1263;21953;-78
2023/09/10 04:33:09;;;;;;;27.30;24.70;;;;;;;16.04;69.77;100693.73;109837;1269;24074;-79
2023/09/10 04:35:53;;;;;;;27.00;24.70;;;;;;;16.05;69.85;100692.48;109761;1269;21973;-78
2023/09/10 04:38:40;;;;;;;26.50;24.00;;;;;;;16.04;69.92;100694.25;110129;1270;21978;-82
2023/09/10 04:41:14;;;;;;;28.90;26.10;;;;;;;16.05;69.93;100694.08;109784;1270;22028;-80
2023/09/10 04:43:46;;;;;;;27.60;24.90;;;;;;;16.07;70.15;100691.86;110073;1269;22994;-79
2023/09/10 04:46:21;;;;;;;28.50;25.90;;;;;;;16.09;70.18;100693.83;109992;1269;23046;-80
2023/09/10 04:49:00;;;;;;;28.20;25.30;;;;;;;16.10;70.19;100693.97;110129;1263;21958;-80
2023/09/10 04:51:31;;;;;;;28.70;25.90;;;;;;;16.11;70.14;100693.72;110837;1263;21995;-81
2023/09/10 04:54:09;;;;;;;37.50;29.80;;;;;;;16.13;70.24;100696.59;110669;1263;21950;-82
2023/09/10 04:56:51;;;;;;;27.10;24.50;;;;;;;16.15;70.35;100694.89;110422;1260;21973;-82
2023/09/10 04:59:28;;;;;;;27.40;24.70;;;;;;;16.19;70.51;100697.30;111209;1258;22074;-80
2023/09/10 05:02:11;;;;;;;28.70;25.60;;;;;;;16.24;70.48;100701.59;111193;1255;22405;-81
2023/09/10 05:04:53;;;;;;;24.70;22.10;;;;;;;16.31;70.44;100701.55;111244;1257;22047;-79
2023/09/10 05:07:35;;;;;;;28.40;25.40;;;;;;;16.37;70.45;100702.80;110819;1261;24057;-81
2023/09/10 05:10:19;;;;;;;29.40;26.60;;;;;;;16.43;70.24;100702.31;110113;1264;23733;-80
2023/09/10 05:13:01;;;;;;;29.20;26.20;;;;;;;16.47;70.10;100704.55;110443;1266;23045;-80
2023/09/10 05:15:40;;;;;;;30.80;27.50;;;;;;;16.51;70.17;100707.27;109886;1267;23769;-80
2023/09/10 05:18:22;;;;;;;30.30;27.20;;;;;;;16.55;70.08;100706.46;109996;1269;23604;-83
2023/09/10 05:20:57;;;;;;;28.90;26.10;;;;;;;16.59;69.91;100707.17;110090;1269;21958;-81
2023/09/10 05:23:34;;;;;;;28.70;25.80;;;;;;;16.58;69.85;100708.63;109448;1274;22460;-82
2023/09/10 05:26:13;;;;;;;26.60;24.30;;;;;;;16.56;69.83;100711.77;109138;1273;21983;-80
2023/09/10 05:28:45;;;;;;;29.10;26.50;;;;;;;16.55;69.99;100711.11;109560;1270;21983;-82
2023/09/10 05:31:32;;;;;;;27.40;24.90;;;;;;;16.55;70.22;100712.33;109427;1273;21996;-80
2023/09/10 05:34:17;;;;;;;30.30;27.20;;;;;;;16.55;70.35;100714.05;109591;1273;22051;-80
2023/09/10 05:36:56;;;;;;;34.70;28.00;;;;;;;16.59;70.58;100711.77;109271;1276;23724;-81
2023/09/10 05:39:34;;;;;;;29.00;26.30;;;;;;;16.68;70.79;100709.11;109049;1280;21983;-81
2023/09/10 05:42:19;;;;;;;29.30;26.50;;;;;;;16.77;70.75;100705.63;109455;1276;23604;-82
2023/09/10 05:45:04;;;;;;;27.40;24.90;;;;;;;16.84;70.82;100705.78;109726;1273;21997;-83
2023/09/10 05:47:54;;;;;;;28.80;26.30;;;;;;;16.94;70.82;100707.64;109785;1273;21992;-81
2023/09/10 05:50:34;;;;;;;28.00;25.50;;;;;;;17.05;70.84;100709.45;110103;1265;21966;-76
2023/09/10 05:53:35;;;;;;;29.50;26.30;;;;;;;17.18;70.71;100711.34;110410;1265;21984;-80
2023/09/10 05:56:07;;;;;;;28.10;25.50;;;;;;;17.30;70.59;100707.98;110280;1260;23435;-77
2023/09/10 05:58:42;;;;;;;28.20;25.40;;;;;;;17.41;70.44;100713.10;110315;1261;22817;-76
2023/09/10 06:01:25;;;;;;;31.30;25.90;;;;;;;17.54;70.15;100715.84;110430;1261;24371;-78
2023/09/10 06:04:03;;;;;;;28.30;25.80;;;;;;;17.66;70.06;100716.64;110644;1261;21966;-78
2023/09/10 06:06:47;;;;;;;28.60;25.80;;;;;;;17.82;70.00;100716.42;109692;1265;24261;-78
2023/09/10 06:09:26;;;;;;;28.90;26.20;;;;;;;17.99;69.63;100714.88;110170;1265;24965;-78
2023/09/10 06:12:16;;;;;;;27.50;24.90;;;;;;;18.16;69.53;100718.20;110112;1265;21977;-80
2023/09/10 06:14:53;;;;;;;27.50;24.70;;;;;;;18.30;69.33;100709.36;110443;1265;21995;-77
2023/09/10 06:17:48;;;;;;;26.50;23.90;;;;;;;18.62;69.08;100717.34;110918;1261;21982;-82
2023/09/10 06:20:23;;;;;;;25.20;22.70;;;;;;;18.91;68.63;100716.00;110901;1261;21965;-81
2023/09/10 06:22:53;;;;;;;25.00;22.80;;;;;;;19.21;68.23;100715.54;110558;1265;21990;-82
2023/09/10 06:25:25;;;;;;;26.10;23.70;;;;;;;19.51;67.15;100712.07;110433;1265;22146;-81
2023/09/10 06:28:02;;;;;;;25.00;22.60;;;;;;;19.84;66.78;100717.55;107591;1265;3654324;-82
2023/09/10 06:30:36;;;;;;;24.00;20.70;;;;;;;20.19;66.14;100719.85;110450;1261;22733;-81
2023/09/10 06:33:11;;;;;;;23.50;21.50;;;;;;;20.56;65.46;100721.55;110740;1261;22741;-81
2023/09/10 06:35:46;;;;;;;23.80;21.40;;;;;;;20.99;64.90;100720.91;110468;1267;23668;-81
2023/09/10 06:38:22;;;;;;;23.40;21.00;;;;;;;21.44;64.24;100722.23;110038;1270;22494;-79
2023/09/10 06:40:53;;;;;;;22.80;20.60;;;;;;;21.90;62.88;100725.17;110240;1267;23715;-81
2023/09/10 06:43:31;;;;;;;20.00;18.00;;;;;;;22.30;61.08;100722.36;109967;1261;22020;-80
2023/09/10 06:46:21;;;;;;;21.30;19.30;;;;;;;22.70;60.39;100726.02;109301;1276;21991;-80
2023/09/10 06:48:51;;;;;;;21.20;19.00;;;;;;;23.12;59.37;100722.72;109511;1275;22000;-81
2023/09/10 06:51:21;;;;;;;21.90;19.80;;;;;;;23.48;57.61;100729.07;109363;1279;23641;-81
2023/09/10 06:53:52;;;;;;;19.80;17.90;;;;;;;23.77;56.65;100728.34;109527;1273;21988;-81
2023/09/10 06:56:29;;;;;;;19.20;17.60;;;;;;;24.13;56.31;100730.89;109702;1273;21958;-82
2023/09/10 06:59:03;;;;;;;20.60;18.50;;;;;;;24.47;55.40;100731.73;109273;1277;23057;-81
2023/09/10 07:01:42;;;;;;;19.70;17.60;;;;;;;24.85;54.69;100738.98;109517;1275;22077;-81
2023/09/10 07:04:23;;;;;;;20.70;18.80;;;;;;;25.18;52.96;100737.21;109881;1270;22345;-81
2023/09/10 07:06:56;;;;;;;20.90;18.80;;;;;;;25.38;52.27;100736.95;110055;1270;21989;-81
2023/09/10 07:09:46;;;;;;;21.20;19.30;;;;;;;25.61;51.80;100737.48;110260;1262;22001;-82
2023/09/10 07:12:20;;;;;;;19.20;17.00;;;;;;;25.81;51.16;100733.38;110722;1262;21986;-82
2023/09/10 07:15:04;;;;;;;21.50;19.50;;;;;;;26.11;51.43;100732.81;110983;1262;21948;-83
2023/09/10 07:17:54;;;;;;;21.50;19.40;;;;;;;26.37;50.15;100729.73;110959;1256;23597;-80
2023/09/10 07:20:27;;;;;;;22.10;19.90;;;;;;;26.50;49.46;100726.52;111152;1256;21977;-81
2023/09/10 07:23:03;;;;;;;22.00;18.80;;;;;;;26.71;49.05;100728.25;111108;1256;21967;-82
2023/09/10 07:25:44;;;;;;;21.20;19.20;;;;;;;26.93;48.46;100727.23;111180;1256;21973;-83
2023/09/10 07:28:21;;;;;;;21.10;17.60;;;;;;;27.13;48.13;100727.65;111012;1256;22058;-83
2023/09/10 07:30:58;;;;;;;19.70;17.70;;;;;;;27.31;47.32;100724.98;111424;1247;22003;-82
2023/09/10 07:33:29;;;;;;;18.40;16.60;;;;;;;27.41;46.49;100730.73;110741;1262;23685;-81
2023/09/10 07:36:01;;;;;;;22.40;18.40;;;;;;;27.63;46.68;100729.23;110772;1260;21838;-81
2023/09/10 07:38:33;;;;;;;17.80;16.20;;;;;;;27.87;46.05;100733.90;110720;1262;21986;-81
2023/09/10 07:41:03;;;;;;;18.40;16.50;;;;;;;28.02;45.65;100731.54;110665;1262;22442;-82
2023/09/10 07:43:32;;;;;;;18.20;16.30;;;;;;;28.15;45.60;100733.78;110594;1262;23695;-82
2023/09/10 07:46:02;;;;;;;18.10;16.20;;;;;;;28.42;45.81;100736.76;110645;1262;23715;-82
2023/09/10 07:48:31;;;;;;;16.90;15.40;;;;;;;28.65;44.44;100735.45;110693;1262;23602;-81
2023/09/10 07:51:10;;;;;;;17.70;16.00;;;;;;;28.74;44.38;100734.64;110776;1256;21956;-82
2023/09/10 07:54:08;;;;;;;16.90;15.20;;;;;;;29.11;44.37;100736.19;111218;1256;21994;-80
2023/09/10 07:56:41;;;;;;;17.70;16.10;;;;;;;29.35;43.02;100730.98;111176;1256;21960;-81
2023/09/10 07:59:15;;;;;;;16.80;15.20;;;;;;;29.36;42.20;100735.02;111230;1256;23634;-82
2023/09/10 08:01:48;;;;;;;15.80;14.30;;;;;;;29.27;42.10;100734.20;111264;1256;21987;-81
2023/09/10 08:04:18;;;;;;;16.10;14.80;;;;;;;29.44;43.21;100733.55;111235;1256;23804;-82
2023/09/10 08:06:51;;;;;;;16.20;14.60;;;;;;;29.75;42.54;100732.48;111185;1256;21962;-85
2023/09/10 08:09:23;;;;;;;16.00;14.60;;;;;;;29.98;42.05;100726.99;111375;1254;21972;-84
2023/09/10 08:12:03;;;;;;;15.50;13.90;;;;;;;30.10;41.35;100728.27;111046;1263;22129;-85
2023/09/10 08:14:41;;;;;;;16.20;13.90;;;;;;;30.16;41.00;100727.77;111228;1262;23942;-85
2023/09/10 08:17:17;;;;;;;15.30;13.90;;;;;;;30.26;41.03;100724.23;110998;1263;21972;-84
2023/09/10 08:19:58;;;;;;;14.60;13.20;;;;;;;30.45;40.58;100717.27;110812;1263;22015;-84
2023/09/10 08:22:41;;;;;;;17.00;14.40;;;;;;;30.61;40.03;100716.89;110765;1263;23128;-84
2023/09/10 08:25:19;;;;;;;15.80;13.90;;;;;;;30.68;39.72;100714.73;110935;1263;22088;-83
2023/09/10 08:28:01;;;;;;;15.20;12.00;;;;;;;30.84;39.68;100714.17;110155;1268;23712;-84
2023/09/10 08:30:36;;;;;;;13.90;12.70;;;;;;;31.10;39.68;100711.13;110538;1263;21962;-84
2023/09/10 08:33:39;;;;;;;13.30;12.00;;;;;;;31.38;38.82;100708.58;110968;1264;21967;-84
2023/09/10 08:36:10;;;;;;;18.50;13.10;;;;;;;31.61;38.55;100706.17;110632;1265;21973;-84
2023/09/10 08:38:57;;;;;;;14.20;12.00;;;;;;;31.90;38.01;100704.70;110815;1265;21971;-85
2023/09/10 08:42:03;;;;;;;11.70;10.50;;;;;;;32.19;37.30;100706.08;110927;1264;21983;-84
2023/09/10 08:44:42;;;;;;;16.80;11.30;;;;;;;32.58;36.65;100705.46;109956;1270;23071;-86
2023/09/10 08:47:26;;;;;;;12.20;10.10;;;;;;;32.95;36.22;100704.99;110252;1265;22945;-83
2023/09/10 08:50:11;;;;;;;13.10;10.30;;;;;;;33.18;35.18;100702.89;110747;1265;21968;-85
2023/09/10 08:52:57;;;;;;;12.90;10.40;;;;;;;33.18;34.26;100703.59;110509;1265;22271;-84
2023/09/10 08:55:46;;;;;;;13.20;9.40;;;;;;;33.32;34.58;100706.71;110288;1262;23606;-85
2023/09/10 08:58:28;;;;;;;12.40;10.00;;;;;;;33.61;34.40;100703.09;110665;1265;21985;-84
2023/09/10 09:01:17;;;;;;;11.10;10.20;;;;;;;33.74;33.76;100702.67;110672;1265;21973;-87
2023/09/10 09:04:04;;;;;;;10.00;8.90;;;;;;;33.80;33.66;100696.95;111174;1257;23698;-85
2023/09/10 09:06:45;;;;;;;17.40;9.50;;;;;;;33.76;32.78;100692.81;111232;1257;21986;-85
2023/09/10 09:09:39;;;;;;;12.80;8.20;;;;;;;33.75;32.72;100690.17;110690;1263;22507;-83
2023/09/10 09:12:17;;;;;;;11.50;9.10;;;;;;;34.04;32.86;100687.48;110211;1270;21982;-85
2023/09/10 09:15:02;;;;;;;17.60;9.40;;;;;;;34.18;31.47;100684.48;110099;1269;21985;-86
2023/09/10 09:17:54;;;;;;;;;;;;;;;;;;;;;
2023/09/10 09:20:42;;;;;;;10.50;8.30;;;;;;;34.37;31.32;100683.49;110174;1269;23948;-83
2023/09/10 09:23:31;;;;;;;9.60;8.50;;;;;;;34.47;31.42;100674.24;109980;1269;21999;-84
2023/09/10 09:26:16;;;;;;;10.80;8.20;;;;;;;34.51;31.08;100678.25;109805;1267;21981;-88
2023/09/10 09:28:55;;;;;;;9.30;8.10;;;;;;;34.52;31.46;100673.83;110474;1264;21977;-87
2023/09/10 09:31:38;;;;;;;9.30;7.50;;;;;;;34.57;30.70;100673.45;111078;1261;22732;-86
2023/09/10 09:34:45;;;;;;;13.40;8.30;;;;;;;34.33;30.79;100672.77;111019;1260;23595;-86
2023/09/10 09:37:24;;;;;;;9.30;8.10;;;;;;;34.39;31.16;100669.20;110933;1260;21985;-83
2023/09/10 09:40:13;;;;;;;14.00;8.20;;;;;;;34.53;30.58;100666.91;111034;1260;21974;-87
2023/09/10 09:43:01;;;;;;;8.30;7.60;;;;;;;34.55;30.27;100666.08;110907;1256;22520;-86
2023/09/10 09:45:51;;;;;;;8.70;7.20;;;;;;;34.56;30.04;100663.28;111175;1257;21978;-87
2023/09/10 09:48:21;;;;;;;7.20;6.50;;;;;;;34.51;29.77;100661.20;111113;1257;21946;-86
2023/09/10 09:50:54;;;;;;;9.90;7.30;;;;;;;34.47;30.25;100659.53;110995;1257;23706;-85
2023/09/10 09:53:31;;;;;;;7.30;6.50;;;;;;;34.73;29.97;100658.20;111115;1257;21983;-83
2023/09/10 09:56:27;;;;;;;7.60;6.10;;;;;;;34.89;29.51;100659.48;111179;1257;22703;-85
2023/09/10 09:58:58;;;;;;;10.10;5.30;;;;;;;34.88;28.35;100653.90;111172;1257;23086;-86
2023/09/10 10:01:41;;;;;;;10.40;6.50;;;;;;;34.85;28.12;100652.28;111324;1255;23676;-85
2023/09/10 10:04:20;;;;;;;8.80;6.30;;;;;;;35.03;28.02;100651.08;111180;1254;22734;-83
2023/09/10 10:06:54;;;;;;;9.10;7.20;;;;;;;35.09;28.49;100648.19;111169;1256;21992;-85
2023/09/10 10:09:48;;;;;;;;;;;;;;;;;;;;;
2023/09/10 10:12:22;;;;;;;8.00;6.60;;;;;;;35.42;27.57;100646.06;110787;1260;22009;-85
2023/09/10 10:15:08;;;;;;;10.20;7.10;;;;;;;35.42;27.72;100642.10;110561;1264;21974;-80
2023/09/10 10:18:18;;;;;;;10.20;8.90;;;;;;;35.26;28.21;100634.73;109517;1274;21998;-88
2023/09/10 10:21:10;;;;;;;8.60;7.60;;;;;;;35.43;28.42;100634.33;109543;1274;21973;-84
2023/09/10 10:23:58;;;;;;;8.30;6.50;;;;;;;35.46;27.99;100631.67;109428;1274;21994;-86
2023/09/10 10:26:37;;;;;;;6.60;5.90;;;;;;;35.32;27.77;100622.17;109373;1275;23018;-86
2023/09/10 10:29:50;;;;;;;;;;;;;;;;;;;;;
2023/09/10 10:33:24;;;;;;;9.20;8.30;;;;;;;34.97;28.17;100618.50;109650;1275;22045;-87
2023/09/10 10:36:36;;;;;;;12.60;6.20;;;;;;;35.04;27.80;100622.54;109488;1274;22063;-86
2023/09/10 10:40:01;;;;;;;7.40;5.60;;;;;;;34.75;27.84;100621.41;109216;1278;22852;-85
2023/09/10 10:43:38;;;;;;;8.10;6.40;;;;;;;34.78;28.10;100616.88;108883;1282;23634;-85
2023/09/10 10:46:28;;;;;;;6.30;4.90;;;;;;;35.00;28.11;100618.95;108772;1285;21916;-88
2023/09/10 10:49:21;;;;;;;8.30;6.20;;;;;;;35.21;27.43;100615.83;108784;1280;21986;-86
2023/09/10 10:52:26;;;;;;;14.20;6.70;;;;;;;35.17;27.08;100610.79;108931;1280;22011;-86
2023/09/10 10:55:37;;;;;;;8.90;6.40;;;;;;;34.98;27.07;100606.73;109031;1282;23734;-87
2023/09/10 10:58:24;;;;;;;10.20;6.60;;;;;;;34.86;27.59;100607.72;109346;1274;21982;-84
2023/09/10 11:01:04;;;;;;;7.70;6.10;;;;;;;34.76;27.71;100603.95;109650;1270;21983;-85
2023/09/10 11:03:55;;;;;;;7.60;6.20;;;;;;;34.54;27.79;100603.33;109464;1271;22016;-85
2023/09/10 11:06:27;;;;;;;13.40;6.90;;;;;;;34.26;28.31;100601.19;109735;1271;22035;-86
2023/09/10 11:09:37;;;;;;;8.40;6.90;;;;;;;33.88;28.39;100598.67;110014;1250;23083;-84
2023/09/10 11:12:24;;;;;;;7.60;6.80;;;;;;;33.37;29.09;100597.58;110851;1262;21986;-85
2023/09/10 11:15:26;;;;;;;8.90;8.10;;;;;;;33.10;30.02;100601.69;110902;1262;23023;-86
2023/09/10 11:18:51;;;;;;;7.70;6.20;;;;;;;32.92;30.19;100593.13;110356;1267;23840;-85
2023/09/10 11:21:54;;;;;;;12.20;6.60;;;;;;;32.64;30.46;100599.71;110321;1262;22200;-85
2023/09/10 11:24:32;;;;;;;8.50;6.10;;;;;;;32.22;30.72;100597.53;110963;1262;21967;-86
2023/09/10 11:27:27;;;;;;;12.60;6.30;;;;;;;31.94;31.19;100594.73;111049;1261;21963;-85
2023/09/10 11:30:13;;;;;;;8.40;6.80;;;;;;;31.67;31.56;100591.77;110821;1263;22098;-83
2023/09/10 11:32:51;;;;;;;9.90;7.00;;;;;;;31.47;32.15;100589.78;110740;1263;23057;-84
2023/09/10 11:36:05;;;;;;;9.50;6.80;;;;;;;31.31;32.60;100587.61;110906;1262;21976;-88
2023/09/10 11:39:50;;;;;;;;;;;;;;;;;;;;;
2023/09/10 11:43:13;;;;;;;7.20;6.00;;;;;;;31.04;33.32;100581.58;110869;1261;21980;-86
2023/09/10 11:46:41;;;;;;;6.40;5.30;;;;;;;30.96;32.99;100576.70;110088;1274;23907;-87
2023/09/10 11:50:31;;;;;;;8.50;5.10;;;;;;;30.86;32.83;100574.48;109584;1281;22055;-87
2023/09/10 11:53:27;;;;;;;21.80;19.50;;;;;;;30.87;32.82;100581.45;109018;1286;22078;-86
2023/09/10 11:56:11;;;;;;;10.40;7.90;;;;;;;30.90;32.80;100579.55;108992;1286;22000;-85
2023/09/10 11:59:08;;;;;;;5.60;5.00;;;;;;;30.90;32.30;100581.21;108876;1286;22174;-88
2023/09/10 12:02:25;;;;;;;9.60;5.50;;;;;;;30.90;32.22;100579.98;108721;1286;22460;-86
2023/09/10 12:05:27;;;;;;;12.40;6.10;;;;;;;30.87;32.01;100577.13;108959;1283;22020;-86
2023/09/10 12:08:20;;;;;;;6.70;5.00;;;;;;;30.87;32.01;100568.98;108849;1281;21990;-86
2023/09/10 12:11:39;;;;;;;8.30;5.50;;;;;;;30.87;31.94;100573.52;109022;1274;22726;-85
2023/09/10 12:14:55;;;;;;;8.50;4.70;;;;;;;30.79;31.56;100573.73;109074;1281;21996;-86
2023/09/10 12:18:25;;;;;;;;;;;;;;;;;;;;;
2023/09/10 12:21:42;;;;;;;5.40;4.10;;;;;;;30.71;31.29;100560.27;108758;1288;22143;-85
2023/09/10 12:24:42;;;;;;;5.80;5.20;;;;;;;30.72;30.87;100559.96;109161;1283;23660;-85
2023/09/10 12:28:09;;;;;;;6.60;5.10;;;;;;;30.66;31.14;100559.32;109127;1282;22022;-85
2023/09/10 12:32:02;;;;;;;;;;;;;;;;;;;;;
2023/09/10 12:35:23;;;;;;;6.40;5.80;;;;;;;30.53;31.18;100554.04;109711;1269;21978;-86
2023/09/10 12:38:53;;;;;;;;;;;;;;;;;;;;;
2023/09/10 12:42:01;;;;;;;;;;;;;;;;;;;;;
2023/09/10 12:45:21;;;;;;;8.90;5.40;;;;;;;30.40;31.32;100549.83;109469;1270;23722;-86
2023/09/10 12:48:18;;;;;;;13.30;5.60;;;;;;;30.36;31.30;100546.56;110026;1269;23008;-86
2023/09/10 12:51:02;;;;;;;6.40;4.80;;;;;;;30.33;31.48;100546.16;109519;1274;21968;-85
2023/09/10 12:54:23;;;;;;;5.80;5.10;;;;;;;30.31;31.22;100550.19;109562;1274;22004;-87